Pagrindinis puslapis
METAR-TAF:

METAR-TAF

Oro uostai :

Homer, Aliaska, Jungtinės Amerikos Valstijos

platuma: 59-39N, ilguma: 151-29W, Aukštis: 26 m

Dabartinis oras

Ataskaita buvo paskelbta 56 minutes, ne 07:53 UTC
Vėjas 4 kt iš Šiaurės Rytų
Temperatūra -6°C
Drėgmė 79%
Slėgis 998 hPa
Matomumas: 16.1 km
Giedras dangus

METAR: PAHO 260753Z 04004KT 10SM CLR M06/M09 A2946 RMK AO2 SLP977 T10561089

Laikas: 23:49 (08:49 UTC)

Prognozė

Ataskaita buvo paskelbta 3 valandos ir 9 minutes, ne 05:40 UTC
Prognozė galioja nuo 26 metu 06 UTC su 27 metu 06 UTC
Vėjas 11 kt iš Šiaurės Rytų
Matomumas: 10 km
Išsisklaidę debesys ne aukštis 4000 ft
Apsiniaukę ne aukštis 6000 ft
Liūtis kaimynystėje
Nuo 27 metu 0300 UTC
Vėjas 5 kt nuo kintamojo kryptimis
Matomumas: 10 km
Išsisklaidę debesys ne aukštis 1000 ft
Su prošvaistėmis ne aukštis 5000 ft

TAF: PAHO 260540Z 2606/2706 05011KT P6SM VCSH SCT040 OVC060 FM270300 VRB05KT P6SM SCT010 BKN050

Orai ataskaitas ir orų prognozės (METAR, TAF).

turimą stotys yra geltonos ir raudonos taškus žemėlapyje.

Perkelti pele per norėdami pamatyti stoties vardą.

Tada spustelėkite, norėdami matyti oro stebėjimo ir prognozės.

Norėdami pakeisti žemėlapį: spustelėkite ant žalios mygtukų su juodo kryžiaus žemyn,; žalią mygtuką su brūkšneliu, jei norite nutolinti; arba žalių rodyklių gretimoms žemėlapius.


METAR-TAF: